Time;durP1;ratioP1;P1;durP2;ratioP2;P2;SDS_P1;SDS_P2;PMS_P1;PMS_P2;Temp;Humidity;BMP_temperature;BMP_pressure;BME280_temperature;BME280_humidity;BME280_pressure;Samples;Min_cycle;Max_cycle;Signal;HPM_P1;HPM_P2
2021/12/05 02:40:51;;;;;;;19.33;10.52;;;;;;;;;;4959936;28;20027;-79
2021/12/05 02:43:39;;;;;;;18.23;12.60;;;;;;;;;;4902047;29;20032;-80
2021/12/05 02:46:27;;;;;;;23.08;14.25;;;;;;;;;;4896567;29;20050;-80
2021/12/05 02:49:37;;;;;;;20.13;14.02;;;;;;;;;;4884334;29;20049;-81
2021/12/05 02:52:21;;;;;;;24.45;15.45;;;;;;;;;;4874913;29;20041;-82
2021/12/05 03:08:23;;;;;;;19.48;13.60;;;;;;;;;;4991844;23;20115;-82
2021/12/05 03:11:01;;;;;;;20.25;13.45;;;;;;;;;;4979289;28;20016;-83
2021/12/05 03:13:47;;;;;;;19.60;13.13;;;;;;;;;;4923135;26;20047;-83
2021/12/05 03:21:48;;;;;;;20.52;12.55;;;;;;;;;;5506124;23;20039;-82
2021/12/05 03:24:15;;;;;;;21.17;13.85;;;;;;;;;;4918462;29;21374;-81
2021/12/05 04:34:48;;;;;;;35.22;25.05;;;;;;;;;;5229389;23;20086;-79
2021/12/05 04:43:05;;;;;;;38.58;26.33;;;;;;;;;;5218404;23;20129;-80
2021/12/05 04:45:35;;;;;;;34.97;23.90;;;;;;;;;;4962731;29;20016;-80
2021/12/05 04:48:17;;;;;;;32.25;22.60;;;;;;;;;;4962151;29;20027;-81
2021/12/05 05:55:26;;;;;;;26.67;18.70;;;;;;;;;;5217127;23;20042;-80
2021/12/05 06:13:31;;;;;;;14.70;9.80;;;;;;;;;;4852673;26;20048;-80
2021/12/05 06:23:56;;;;;;;27.33;18.25;;;;;;;;;;5525935;23;20056;-80
2021/12/05 06:36:49;;;;;;;43.33;27.58;;;;;;;;;;5669032;23;20103;-80
2021/12/05 07:00:45;;;;;;;36.50;26.42;;;;;;;;;;4989171;23;20269;-76
2021/12/05 07:03:11;;;;;;;41.40;26.88;;;;;;;;;;4969289;28;20075;-73
2021/12/05 07:06:05;;;;;;;38.33;25.77;;;;;;;;;;4992311;28;20026;-79
2021/12/05 07:09:05;;;;;;;31.45;22.40;;;;;;;;;;4982618;28;20011;-80
2021/12/05 07:12:01;;;;;;;36.05;25.42;;;;;;;;;;4991327;28;20035;-79
2021/12/05 07:14:48;;;;;;;38.63;25.67;;;;;;;;;;4988306;28;20030;-79
2021/12/05 07:20:22;;;;;;;40.65;28.40;;;;;;;;;;4986320;28;20093;-74
2021/12/05 07:23:08;;;;;;;47.65;34.13;;;;;;;;;;4940216;29;20052;-75
2021/12/05 07:25:47;;;;;;;37.53;27.67;;;;;;;;;;4937431;29;20123;-75
2021/12/05 07:42:42;;;;;;;41.90;29.25;;;;;;;;;;4904476;29;20081;-78
2021/12/05 07:45:15;;;;;;;38.10;26.88;;;;;;;;;;4883555;29;20038;-78
2021/12/05 07:48:10;;;;;;;38.88;27.23;;;;;;;;;;4893458;29;20472;-77
2021/12/05 07:51:09;;;;;;;46.65;33.05;;;;;;;;;;4882098;29;20025;-76
2021/12/05 07:53:34;;;;;;;45.05;31.45;;;;;;;;;;4911551;29;20123;-77
2021/12/05 07:56:13;;;;;;;47.67;33.35;;;;;;;;;;4938709;29;20020;-75
2021/12/05 07:58:58;;;;;;;52.80;35.70;;;;;;;;;;4928227;29;20121;-76
2021/12/05 08:23:22;;;;;;;33.58;27.15;;;;;;;;;;4985802;28;20049;-77
2021/12/05 08:25:55;;;;;;;52.92;37.85;;;;;;;;;;4981525;28;20003;-75
2021/12/05 08:28:54;;;;;;;27.85;20.05;;;;;;;;;;4960977;29;20055;-76
2021/12/05 08:31:27;;;;;;;29.38;21.08;;;;;;;;;;4969948;29;20079;-77
2021/12/05 09:29:54;;;;;;;18.42;12.95;;;;;;;;;;4893451;29;19902;-74
2021/12/05 10:19:47;;;;;;;45.75;32.10;;;;;;;;;;4880001;29;20033;-82
2021/12/05 10:38:11;;;;;;;41.78;25.95;;;;;;;;;;4789816;30;20073;-76
2021/12/05 10:40:58;;;;;;;43.28;29.42;;;;;;;;;;4784013;30;20066;-77
2021/12/05 10:43:53;;;;;;;39.00;27.02;;;;;;;;;;4788602;30;20051;-78
2021/12/05 10:49:00;;;;;;;43.50;29.83;;;;;;;;;;4993285;23;20501;-78
2021/12/05 10:51:28;;;;;;;41.28;28.90;;;;;;;;;;4945685;29;20066;-79
2021/12/05 10:54:04;;;;;;;42.70;31.52;;;;;;;;;;4946457;29;20043;-79
2021/12/05 10:56:38;;;;;;;39.72;30.23;;;;;;;;;;4945239;28;20043;-76
2021/12/05 10:59:07;;;;;;;44.33;30.73;;;;;;;;;;4949931;29;20493;-77
2021/12/05 11:01:35;;;;;;;41.63;29.52;;;;;;;;;;4951256;28;20023;-76
2021/12/05 11:04:32;;;;;;;40.15;28.08;;;;;;;;;;4963390;29;20030;-79
2021/12/05 11:06:59;;;;;;;51.53;30.27;;;;;;;;;;4887460;29;20060;-76
2021/12/05 11:09:28;;;;;;;34.75;24.77;;;;;;;;;;4889759;29;20055;-78
2021/12/05 11:12:01;;;;;;;31.30;22.38;;;;;;;;;;4867433;29;20077;-75
2021/12/05 11:14:35;;;;;;;36.72;26.33;;;;;;;;;;4868213;29;20219;-76
2021/12/05 11:17:09;;;;;;;39.53;26.52;;;;;;;;;;4875365;29;20527;-77
2021/12/05 11:19:37;;;;;;;32.03;20.30;;;;;;;;;;4878089;29;20045;-76
2021/12/05 11:22:03;;;;;;;30.02;17.48;;;;;;;;;;4898086;29;20088;-76
2021/12/05 11:24:34;;;;;;;32.45;19.77;;;;;;;;;;4894628;29;20045;-75
2021/12/05 11:27:20;;;;;;;46.65;31.88;;;;;;;;;;4895280;29;20033;-77
2021/12/05 11:33:01;;;;;;;39.33;21.98;;;;;;;;;;4880061;29;20044;-79
2021/12/05 11:41:33;;;;;;;39.70;27.95;;;;;;;;;;1093727;27;20383;-78
2021/12/05 11:44:41;;;;;;;60.55;39.92;;;;;;;;;;4959254;28;20045;-79
2021/12/05 11:47:34;;;;;;;35.20;23.48;;;;;;;;;;4952667;28;20035;-78
2021/12/05 11:50:06;;;;;;;29.35;20.83;;;;;;;;;;4943635;28;20066;-78
2021/12/05 11:52:37;;;;;;;38.63;26.05;;;;;;;;;;4962296;28;20113;-78
2021/12/05 11:55:08;;;;;;;39.97;26.98;;;;;;;;;;4961575;29;20032;-78
2021/12/05 11:57:38;;;;;;;26.75;17.70;;;;;;;;;;4937846;29;20043;-78
2021/12/05 12:00:27;;;;;;;14.43;9.23;;;;;;;;;;4967870;28;20019;-80
2021/12/05 12:03:18;;;;;;;11.70;7.50;;;;;;;;;;4923335;29;20043;-77
2021/12/05 12:05:44;;;;;;;10.80;6.72;;;;;;;;;;4902611;29;20040;-78
2021/12/05 12:08:28;;;;;;;12.18;7.07;;;;;;;;;;4898844;29;20032;-78
2021/12/05 12:11:02;;;;;;;7.93;5.60;;;;;;;;;;4931732;29;20043;-78
2021/12/05 12:13:51;;;;;;;25.27;19.42;;;;;;;;;;4939625;29;20167;-78
2021/12/05 12:16:33;;;;;;;36.65;26.05;;;;;;;;;;4921853;29;20075;-78
2021/12/05 12:19:12;;;;;;;37.55;25.60;;;;;;;;;;4940742;29;20120;-76
2021/12/05 12:21:42;;;;;;;37.35;26.67;;;;;;;;;;4927955;29;20044;-76
2021/12/05 12:24:10;;;;;;;32.30;24.45;;;;;;;;;;4901708;29;20123;-77
2021/12/05 12:26:39;;;;;;;30.40;20.92;;;;;;;;;;4919704;29;20549;-75
2021/12/05 12:29:14;;;;;;;27.00;19.27;;;;;;;;;;4897429;29;20433;-76
2021/12/05 12:31:42;;;;;;;30.67;19.38;;;;;;;;;;4920562;29;20017;-77
2021/12/05 12:34:11;;;;;;;32.50;20.70;;;;;;;;;;4935009;29;20139;-77
2021/12/05 12:36:40;;;;;;;22.40;14.73;;;;;;;;;;4947565;29;20030;-78
2021/12/05 12:39:16;;;;;;;36.10;22.85;;;;;;;;;;4935114;29;20032;-77
2021/12/05 12:48:16;;;;;;;24.55;17.27;;;;;;;;;;4968220;29;20049;-77
2021/12/05 12:51:02;;;;;;;16.17;11.50;;;;;;;;;;4975836;29;20009;-76
2021/12/05 12:53:37;;;;;;;10.65;8.70;;;;;;;;;;4959812;28;20048;-79
2021/12/05 12:56:26;;;;;;;13.02;8.80;;;;;;;;;;4965628;29;20020;-77
2021/12/05 12:58:55;;;;;;;13.85;8.23;;;;;;;;;;4955431;29;20489;-79
2021/12/05 13:01:50;;;;;;;12.95;7.65;;;;;;;;;;4951374;29;20043;-77
2021/12/05 13:10:06;;;;;;;21.23;14.85;;;;;;;;;;5243105;23;20501;-78
2021/12/05 13:12:48;;;;;;;24.08;16.40;;;;;;;;;;4952855;29;20540;-79
2021/12/05 13:15:17;;;;;;;23.27;15.95;;;;;;;;;;4940753;29;20049;-73
2021/12/05 13:17:48;;;;;;;26.75;19.77;;;;;;;;;;4946738;29;20028;-72
2021/12/05 13:20:17;;;;;;;25.98;17.63;;;;;;;;;;4935500;29;20452;-73
2021/12/05 13:23:06;;;;;;;29.83;20.27;;;;;;;;;;4960542;29;20545;-77
2021/12/05 13:25:39;;;;;;;31.05;20.95;;;;;;;;;;4973653;28;20035;-75
2021/12/05 13:28:23;;;;;;;34.50;22.88;;;;;;;;;;4951644;28;20385;-76
2021/12/05 13:30:49;;;;;;;33.40;23.08;;;;;;;;;;4925561;29;20043;-74
2021/12/05 13:33:19;;;;;;;38.60;25.88;;;;;;;;;;4934144;29;20074;-75
2021/12/05 13:35:46;;;;;;;37.72;24.42;;;;;;;;;;4940594;29;20039;-78
2021/12/05 13:38:49;;;;;;;34.13;24.17;;;;;;;;;;4959159;28;20019;-84
2021/12/05 13:41:19;;;;;;;35.38;22.17;;;;;;;;;;4960392;28;20043;-79
2021/12/05 13:46:38;;;;;;;39.33;27.63;;;;;;;;;;5671781;23;20083;-77
2021/12/05 13:52:35;;;;;;;42.75;25.50;;;;;;;;;;4879747;29;20101;-80
2021/12/05 14:00:55;;;;;;;29.35;20.00;;;;;;;;;;5159262;23;20047;-78
2021/12/05 14:03:40;;;;;;;36.15;23.13;;;;;;;;;;4984784;28;20469;-78
2021/12/05 14:09:21;;;;;;;37.33;24.80;;;;;;;;;;4984307;28;20082;-77
2021/12/05 14:11:50;;;;;;;36.97;25.67;;;;;;;;;;4980619;28;20030;-76
2021/12/05 14:14:17;;;;;;;34.60;23.98;;;;;;;;;;4987481;28;20045;-77
2021/12/05 14:16:46;;;;;;;33.55;23.75;;;;;;;;;;4969948;28;20118;-77
2021/12/05 14:19:16;;;;;;;34.78;22.85;;;;;;;;;;4979422;28;20022;-76
2021/12/05 14:21:43;;;;;;;35.78;23.55;;;;;;;;;;4978395;28;20350;-76
2021/12/05 14:24:10;;;;;;;25.75;18.50;;;;;;;;;;4979522;28;20105;-76
2021/12/05 14:26:39;;;;;;;24.15;16.80;;;;;;;;;;4959723;28;20043;-76
2021/12/05 14:29:05;;;;;;;20.58;14.75;;;;;;;;;;4961992;28;20023;-77
2021/12/05 14:31:33;;;;;;;20.15;12.68;;;;;;;;;;4959708;28;20031;-78
2021/12/05 14:34:02;;;;;;;16.08;11.55;;;;;;;;;;4967144;28;20042;-78
2021/12/05 14:36:31;;;;;;;12.65;9.43;;;;;;;;;;4968293;28;20388;-76
2021/12/05 14:39:06;;;;;;;11.70;8.43;;;;;;;;;;4960059;28;20099;-78
2021/12/05 14:41:33;;;;;;;12.57;8.07;;;;;;;;;;4945442;29;20023;-77
2021/12/05 14:44:01;;;;;;;13.05;8.52;;;;;;;;;;4960936;29;20511;-78
2021/12/05 14:46:27;;;;;;;12.48;8.02;;;;;;;;;;4944163;29;20043;-76
2021/12/05 14:49:03;;;;;;;11.57;7.30;;;;;;;;;;4974850;28;20030;-78
2021/12/05 14:51:52;;;;;;;10.27;7.57;;;;;;;;;;4981346;28;20106;-78
2021/12/05 14:54:19;;;;;;;11.55;8.15;;;;;;;;;;4980448;28;20041;-78
2021/12/05 14:56:49;;;;;;;10.68;8.05;;;;;;;;;;4982596;28;20027;-78
2021/12/05 14:59:18;;;;;;;13.55;8.63;;;;;;;;;;4983881;28;20038;-79
2021/12/05 15:01:54;;;;;;;9.65;7.40;;;;;;;;;;4982211;28;20106;-79
2021/12/05 15:04:25;;;;;;;11.38;7.20;;;;;;;;;;4979195;28;20090;-78
2021/12/05 15:06:53;;;;;;;10.02;7.15;;;;;;;;;;4966576;28;20101;-79
2021/12/05 15:09:20;;;;;;;12.32;7.80;;;;;;;;;;4983074;28;20031;-78
2021/12/05 15:11:57;;;;;;;10.27;7.45;;;;;;;;;;4963435;28;20038;-79
2021/12/05 15:14:26;;;;;;;12.48;7.72;;;;;;;;;;4967465;28;20053;-77
2021/12/05 15:17:13;;;;;;;9.70;6.65;;;;;;;;;;4979686;28;20078;-78
2021/12/05 15:19:48;;;;;;;8.80;6.32;;;;;;;;;;4944820;28;20034;-76
2021/12/05 15:22:15;;;;;;;8.75;6.50;;;;;;;;;;4951640;29;20063;-75
2021/12/05 15:24:57;;;;;;;14.25;11.52;;;;;;;;;;4951081;28;20817;-75
2021/12/05 15:27:25;;;;;;;11.25;8.30;;;;;;;;;;4980855;28;20031;-75
2021/12/05 15:30:03;;;;;;;9.75;6.50;;;;;;;;;;4977215;28;20473;-75
2021/12/05 15:32:31;;;;;;;11.65;8.27;;;;;;;;;;4959727;28;20042;-75
2021/12/05 15:34:59;;;;;;;11.63;7.25;;;;;;;;;;4976530;28;20022;-75
2021/12/05 15:37:25;;;;;;;10.52;6.53;;;;;;;;;;4980587;28;20113;-75
2021/12/05 15:39:58;;;;;;;8.00;6.10;;;;;;;;;;4981455;28;20027;-77
2021/12/05 15:42:26;;;;;;;10.40;7.22;;;;;;;;;;4983995;28;20054;-78
2021/12/05 15:44:55;;;;;;;11.13;7.35;;;;;;;;;;4979872;28;20035;-78
2021/12/05 15:47:34;;;;;;;14.48;9.35;;;;;;;;;;4977541;28;20097;-77
2021/12/05 15:50:00;;;;;;;18.80;13.13;;;;;;;;;;4981766;28;20085;-76
2021/12/05 15:52:30;;;;;;;15.70;10.45;;;;;;;;;;4981728;28;20027;-76
2021/12/05 15:54:58;;;;;;;14.68;10.05;;;;;;;;;;4982139;28;20041;-77
2021/12/05 15:57:30;;;;;;;14.50;9.65;;;;;;;;;;4980960;28;20026;-77
2021/12/05 15:59:57;;;;;;;11.90;8.95;;;;;;;;;;4985887;28;20109;-76
2021/12/05 16:02:24;;;;;;;12.45;8.70;;;;;;;;;;4986044;28;20089;-77
2021/12/05 16:04:50;;;;;;;14.05;9.13;;;;;;;;;;4986044;28;20077;-76
2021/12/05 16:07:17;;;;;;;14.13;9.32;;;;;;;;;;4985614;28;20023;-77
2021/12/05 16:09:46;;;;;;;19.02;12.93;;;;;;;;;;4985766;28;20029;-78
2021/12/05 16:12:17;;;;;;;25.55;17.92;;;;;;;;;;4986046;28;20372;-77
2021/12/05 16:14:45;;;;;;;32.40;20.85;;;;;;;;;;4984874;28;20033;-76
2021/12/05 16:17:35;;;;;;;30.10;20.77;;;;;;;;;;4986074;28;20034;-77
2021/12/05 16:20:10;;;;;;;28.60;19.88;;;;;;;;;;4984772;28;20034;-77
2021/12/05 16:22:56;;;;;;;28.92;20.80;;;;;;;;;;4966057;29;20064;-77
2021/12/05 16:25:22;;;;;;;32.25;22.02;;;;;;;;;;4982240;28;20059;-78
2021/12/05 16:27:50;;;;;;;32.30;21.77;;;;;;;;;;4984830;28;20045;-77
2021/12/05 16:30:20;;;;;;;31.83;21.15;;;;;;;;;;4984853;28;20042;-77
2021/12/05 16:32:48;;;;;;;36.03;25.10;;;;;;;;;;4984938;28;20038;-77
2021/12/05 16:35:34;;;;;;;32.92;24.17;;;;;;;;;;4985016;28;20034;-76
2021/12/05 16:38:02;;;;;;;33.88;23.70;;;;;;;;;;4983139;28;20385;-77
2021/12/05 16:40:48;;;;;;;39.15;27.15;;;;;;;;;;4985538;28;20029;-76
2021/12/05 16:43:19;;;;;;;45.97;33.33;;;;;;;;;;4985374;28;20027;-77
2021/12/05 16:45:46;;;;;;;44.92;32.55;;;;;;;;;;4982777;28;20085;-77
2021/12/05 16:48:16;;;;;;;45.60;27.73;;;;;;;;;;4983930;28;20086;-76
2021/12/05 16:50:43;;;;;;;36.75;24.90;;;;;;;;;;4985037;28;20081;-76
2021/12/05 16:53:13;;;;;;;33.90;22.67;;;;;;;;;;4985609;28;20070;-76
2021/12/05 16:55:56;;;;;;;34.35;23.50;;;;;;;;;;4984849;28;20041;-76
2021/12/05 16:58:25;;;;;;;29.25;20.00;;;;;;;;;;4982573;28;20070;-76
2021/12/05 17:00:55;;;;;;;23.42;16.75;;;;;;;;;;4984090;28;20054;-76
2021/12/05 17:03:23;;;;;;;25.13;18.17;;;;;;;;;;4983354;28;20027;-76
2021/12/05 17:05:51;;;;;;;26.98;19.02;;;;;;;;;;4982820;28;20022;-75
2021/12/05 17:08:23;;;;;;;27.17;18.48;;;;;;;;;;4971315;28;20022;-78
2021/12/05 17:11:10;;;;;;;25.50;17.52;;;;;;;;;;4986804;28;20074;-76
2021/12/05 17:13:46;;;;;;;30.92;21.40;;;;;;;;;;4977050;28;20066;-77
2021/12/05 17:16:40;;;;;;;27.05;20.35;;;;;;;;;;4989613;28;20027;-76
2021/12/05 17:19:29;;;;;;;27.90;22.20;;;;;;;;;;4960550;28;20038;-79
2021/12/05 17:33:36;;;;;;;51.25;34.60;;;;;;;;;;5002657;23;20082;-77
2021/12/05 17:36:20;;;;;;;66.00;40.35;;;;;;;;;;4940646;29;20031;-76
2021/12/05 17:38:46;;;;;;;;;;;;;;;;;;4957821;28;20086;-78
2021/12/05 17:41:13;;;;;;;49.15;31.48;;;;;;;;;;4949948;29;19914;-78
2021/12/05 17:43:39;;;;;;;40.85;28.90;;;;;;;;;;4935681;29;20060;-76
2021/12/05 17:46:06;;;;;;;44.97;28.95;;;;;;;;;;4952642;29;20023;-76
2021/12/05 17:48:33;;;;;;;41.88;29.90;;;;;;;;;;4970582;28;20126;-77
2021/12/05 17:51:03;;;;;;;40.80;30.02;;;;;;;;;;4965268;29;20443;-78
2021/12/05 17:53:31;;;;;;;43.05;30.17;;;;;;;;;;4942447;29;20055;-76
2021/12/05 17:56:07;;;;;;;42.35;29.48;;;;;;;;;;4958243;29;20027;-76
2021/12/05 18:03:55;;;;;;;42.05;30.50;;;;;;;;;;4972164;29;20046;-79
2021/12/05 18:06:45;;;;;;;46.47;31.20;;;;;;;;;;4956963;29;20032;-80
2021/12/05 18:09:11;;;;;;;51.00;34.65;;;;;;;;;;4938546;29;20047;-78
2021/12/05 18:11:37;;;;;;;49.30;34.20;;;;;;;;;;4970039;28;20110;-79
2021/12/05 18:14:04;;;;;;;53.17;35.72;;;;;;;;;;4965299;28;20028;-77
2021/12/05 18:16:42;;;;;;;50.63;34.78;;;;;;;;;;4967400;28;20090;-79
2021/12/05 18:19:19;;;;;;;50.78;35.88;;;;;;;;;;4957799;29;20062;-77
2021/12/05 18:21:47;;;;;;;52.47;34.35;;;;;;;;;;4962095;29;20079;-77
2021/12/05 18:24:14;;;;;;;52.60;35.25;;;;;;;;;;4960172;28;20397;-76
2021/12/05 18:26:42;;;;;;;50.13;35.78;;;;;;;;;;4955368;29;20089;-77
2021/12/05 18:29:11;;;;;;;55.03;36.75;;;;;;;;;;4965021;29;20031;-78
2021/12/05 18:31:38;;;;;;;54.15;38.63;;;;;;;;;;4949775;29;20095;-74
2021/12/05 18:34:06;;;;;;;56.85;40.33;;;;;;;;;;4962022;29;20099;-74
2021/12/05 18:36:33;;;;;;;58.95;41.95;;;;;;;;;;4972000;28;20058;-74
2021/12/05 18:38:59;;;;;;;60.13;43.72;;;;;;;;;;4960733;28;20030;-77
2021/12/05 18:45:00;;;;;;;58.75;42.15;;;;;;;;;;4978274;28;20046;-82
2021/12/05 18:48:11;;;;;;;64.47;43.92;;;;;;;;;;4974119;28;20039;-79
2021/12/05 18:50:38;;;;;;;65.93;46.63;;;;;;;;;;4908631;29;20036;-77
2021/12/05 18:56:18;;;;;;;91.85;60.92;;;;;;;;;;4872631;29;20052;-74
2021/12/05 18:58:45;;;;;;;86.93;59.20;;;;;;;;;;4875500;29;20032;-76
2021/12/05 19:07:02;;;;;;;86.13;56.85;;;;;;;;;;4868637;29;20116;-80
2021/12/05 19:11:39;;;;;;;93.03;65.30;;;;;;;;;;4863306;29;20029;-79
2021/12/05 19:12:15;;;;;;;91.05;64.75;;;;;;;;;;4869997;29;20093;-78
2021/12/05 19:14:44;;;;;;;92.63;63.63;;;;;;;;;;4868198;29;20055;-78
2021/12/05 19:17:13;;;;;;;127.93;78.57;;;;;;;;;;4871658;29;20038;-79
2021/12/05 19:19:46;;;;;;;164.10;109.80;;;;;;;;;;4875023;29;20033;-80
2021/12/05 19:22:14;;;;;;;123.05;83.18;;;;;;;;;;4906657;29;20040;-77
2021/12/05 19:24:41;;;;;;;114.05;77.38;;;;;;;;;;4906850;29;20077;-77
2021/12/05 19:27:10;;;;;;;128.13;86.20;;;;;;;;;;4939948;29;20039;-80
2021/12/05 19:29:37;;;;;;;115.03;80.60;;;;;;;;;;4955667;29;20032;-75
2021/12/05 19:32:05;;;;;;;111.03;73.07;;;;;;;;;;4953627;29;20172;-77
2021/12/05 19:34:31;;;;;;;116.28;73.38;;;;;;;;;;4940343;29;20398;-78
2021/12/05 19:36:57;;;;;;;110.75;72.70;;;;;;;;;;4961414;29;20019;-78
2021/12/05 19:39:26;;;;;;;99.90;68.28;;;;;;;;;;4958943;28;20042;-76
2021/12/05 19:41:53;;;;;;;91.32;64.78;;;;;;;;;;4962382;28;20527;-76
2021/12/05 19:44:19;;;;;;;91.38;62.63;;;;;;;;;;4955863;29;20102;-75
2021/12/05 19:46:45;;;;;;;83.18;56.25;;;;;;;;;;4954065;29;20062;-75
2021/12/05 19:49:12;;;;;;;83.55;57.00;;;;;;;;;;4938236;29;20031;-75
2021/12/05 19:51:38;;;;;;;97.95;67.00;;;;;;;;;;4953766;29;20031;-75
2021/12/05 19:54:07;;;;;;;91.88;64.35;;;;;;;;;;4950941;29;20042;-76
2021/12/05 19:56:33;;;;;;;83.45;57.13;;;;;;;;;;4956710;28;20071;-76
2021/12/05 19:58:59;;;;;;;86.80;57.40;;;;;;;;;;4939211;29;20445;-75
2021/12/05 20:01:25;;;;;;;92.68;61.63;;;;;;;;;;4961577;28;20117;-76
2021/12/05 20:03:52;;;;;;;97.35;62.47;;;;;;;;;;4957191;29;20079;-76
2021/12/05 20:06:18;;;;;;;107.78;73.32;;;;;;;;;;4954740;28;20404;-75
2021/12/05 20:08:45;;;;;;;101.80;70.50;;;;;;;;;;4954946;29;20024;-77
2021/12/05 20:11:12;;;;;;;95.68;62.38;;;;;;;;;;4954533;29;20111;-76
2021/12/05 20:13:39;;;;;;;82.45;54.63;;;;;;;;;;4956123;29;20055;-77
2021/12/05 20:16:09;;;;;;;76.50;53.45;;;;;;;;;;4943815;29;20082;-77
2021/12/05 20:18:35;;;;;;;71.72;50.03;;;;;;;;;;4961314;29;20034;-77
2021/12/05 20:21:06;;;;;;;72.57;48.83;;;;;;;;;;4957551;29;20024;-76
2021/12/05 20:23:32;;;;;;;72.15;49.30;;;;;;;;;;4959216;29;20027;-76
2021/12/05 20:25:59;;;;;;;71.70;49.47;;;;;;;;;;4959635;29;20102;-77
2021/12/05 20:28:25;;;;;;;73.88;51.75;;;;;;;;;;4960038;29;20031;-77
2021/12/05 20:30:51;;;;;;;75.40;51.58;;;;;;;;;;4957125;29;20050;-76
2021/12/05 20:33:18;;;;;;;74.25;50.80;;;;;;;;;;4958760;28;20090;-77
2021/12/05 20:35:44;;;;;;;72.75;50.28;;;;;;;;;;4961084;28;20097;-77
2021/12/05 20:38:11;;;;;;;79.65;52.38;;;;;;;;;;4961221;29;20023;-77
2021/12/05 20:40:42;;;;;;;71.20;47.08;;;;;;;;;;4959479;28;20039;-77
2021/12/05 20:43:09;;;;;;;60.70;41.45;;;;;;;;;;4960146;29;20523;-76
2021/12/05 20:45:35;;;;;;;62.20;43.55;;;;;;;;;;4952224;29;20039;-77
2021/12/05 20:48:02;;;;;;;59.03;41.15;;;;;;;;;;4959943;29;20033;-77
2021/12/05 20:50:29;;;;;;;56.28;40.92;;;;;;;;;;4949613;29;20023;-77
2021/12/05 20:52:56;;;;;;;54.85;37.15;;;;;;;;;;4962373;28;20082;-77
2021/12/05 20:55:23;;;;;;;62.67;44.38;;;;;;;;;;4960628;28;20031;-76
2021/12/05 20:57:49;;;;;;;68.03;49.05;;;;;;;;;;4961390;29;20034;-77
2021/12/05 21:00:21;;;;;;;63.60;44.42;;;;;;;;;;4954521;29;20110;-76
2021/12/05 21:02:49;;;;;;;69.30;47.50;;;;;;;;;;4957325;29;20031;-76
2021/12/05 21:05:17;;;;;;;80.50;52.38;;;;;;;;;;4959796;29;20031;-76
2021/12/05 21:07:51;;;;;;;67.32;46.17;;;;;;;;;;4943439;29;20039;-77
2021/12/05 21:10:22;;;;;;;69.68;44.47;;;;;;;;;;4942909;28;20426;-77
2021/12/05 21:12:48;;;;;;;98.22;60.30;;;;;;;;;;4959355;28;20038;-76
2021/12/05 21:15:15;;;;;;;57.42;40.28;;;;;;;;;;4960359;29;20047;-77
2021/12/05 21:17:42;;;;;;;59.17;41.70;;;;;;;;;;4959123;29;20043;-76
2021/12/05 21:20:09;;;;;;;62.20;43.90;;;;;;;;;;4958628;29;20542;-77
2021/12/05 21:22:35;;;;;;;70.88;48.60;;;;;;;;;;4957940;29;20024;-77
2021/12/05 21:25:01;;;;;;;88.82;55.05;;;;;;;;;;4960248;29;20027;-76
2021/12/05 21:27:27;;;;;;;81.07;53.45;;;;;;;;;;4955829;29;20027;-77
2021/12/05 21:29:53;;;;;;;82.95;53.85;;;;;;;;;;4958897;29;20039;-77
2021/12/05 21:32:22;;;;;;;79.68;54.92;;;;;;;;;;4958676;29;20063;-76
2021/12/05 21:34:48;;;;;;;79.25;52.63;;;;;;;;;;4958397;29;20476;-76
2021/12/05 21:37:14;;;;;;;80.07;54.60;;;;;;;;;;4958469;29;20034;-77
2021/12/05 21:39:43;;;;;;;84.50;54.25;;;;;;;;;;4959286;28;20027;-77
2021/12/05 21:42:12;;;;;;;76.13;51.63;;;;;;;;;;4959021;29;20469;-76
2021/12/05 21:44:38;;;;;;;73.75;48.47;;;;;;;;;;4958138;28;20058;-77
2021/12/05 21:47:05;;;;;;;87.43;57.95;;;;;;;;;;4960663;28;20023;-78
2021/12/05 21:49:31;;;;;;;85.28;57.22;;;;;;;;;;4970228;28;20035;-77
2021/12/05 21:52:00;;;;;;;77.95;53.78;;;;;;;;;;4980080;28;20027;-77
2021/12/05 21:54:26;;;;;;;80.85;54.17;;;;;;;;;;4962188;28;20039;-76
2021/12/05 21:56:52;;;;;;;82.60;55.10;;;;;;;;;;4940365;29;20106;-77
2021/12/05 21:59:20;;;;;;;95.70;61.05;;;;;;;;;;4955860;28;20462;-76
2021/12/05 22:01:48;;;;;;;91.03;59.40;;;;;;;;;;4957487;28;20060;-77
2021/12/05 22:04:14;;;;;;;84.57;57.45;;;;;;;;;;4942137;29;20134;-77
2021/12/05 22:06:40;;;;;;;96.28;65.10;;;;;;;;;;4958435;28;20032;-77
2021/12/05 22:09:07;;;;;;;85.22;59.55;;;;;;;;;;4958623;29;20023;-76
2021/12/05 22:11:35;;;;;;;87.18;59.63;;;;;;;;;;4957837;29;20134;-76
2021/12/05 22:14:01;;;;;;;93.65;60.63;;;;;;;;;;4958055;29;20039;-77
2021/12/05 22:16:29;;;;;;;87.20;56.95;;;;;;;;;;4940844;29;20493;-76
2021/12/05 22:18:57;;;;;;;97.07;60.33;;;;;;;;;;4955924;28;20082;-76
2021/12/05 22:21:32;;;;;;;96.32;62.85;;;;;;;;;;4941696;29;20020;-76
2021/12/05 22:23:59;;;;;;;97.97;62.35;;;;;;;;;;4945117;29;20031;-77
2021/12/05 22:26:28;;;;;;;102.07;64.88;;;;;;;;;;4952380;29;20031;-77
2021/12/05 22:28:55;;;;;;;85.43;58.08;;;;;;;;;;4958001;28;20106;-77
2021/12/05 22:31:22;;;;;;;86.63;58.28;;;;;;;;;;4949911;28;20035;-76
2021/12/05 22:33:48;;;;;;;90.25;59.03;;;;;;;;;;4957152;29;20074;-77
2021/12/05 22:36:17;;;;;;;96.93;62.30;;;;;;;;;;4958049;28;20031;-77
2021/12/05 22:38:46;;;;;;;94.45;62.55;;;;;;;;;;4957508;28;20064;-76
2021/12/05 22:41:13;;;;;;;91.35;62.50;;;;;;;;;;4958628;28;20035;-77
2021/12/05 22:43:39;;;;;;;118.85;74.82;;;;;;;;;;4964648;28;20106;-76
2021/12/05 22:46:06;;;;;;;121.25;79.60;;;;;;;;;;4958060;29;20374;-77
2021/12/05 22:48:32;;;;;;;127.45;82.80;;;;;;;;;;4954566;28;20054;-76
2021/12/05 22:50:58;;;;;;;130.13;84.93;;;;;;;;;;4957094;28;20030;-76
2021/12/05 22:53:25;;;;;;;137.45;88.65;;;;;;;;;;4956595;29;20057;-77
2021/12/05 22:55:51;;;;;;;137.10;90.13;;;;;;;;;;4957510;28;20106;-76
2021/12/05 22:58:17;;;;;;;146.23;92.95;;;;;;;;;;4961256;28;20877;-77
2021/12/05 23:00:46;;;;;;;126.07;83.72;;;;;;;;;;4956998;29;20155;-77
2021/12/05 23:03:15;;;;;;;150.38;93.68;;;;;;;;;;4956128;29;20106;-76
2021/12/05 23:05:41;;;;;;;145.45;95.55;;;;;;;;;;4957616;29;20477;-76
2021/12/05 23:08:08;;;;;;;154.35;95.80;;;;;;;;;;4957283;28;20090;-76
2021/12/05 23:10:34;;;;;;;142.48;89.78;;;;;;;;;;4959994;29;20030;-77
2021/12/05 23:13:00;;;;;;;134.63;84.05;;;;;;;;;;4959363;28;20031;-76
2021/12/05 23:15:26;;;;;;;140.13;87.88;;;;;;;;;;4965363;28;20047;-76
2021/12/05 23:17:54;;;;;;;144.65;87.22;;;;;;;;;;4957319;29;20099;-76
2021/12/05 23:20:23;;;;;;;124.78;79.38;;;;;;;;;;4956164;29;20425;-76
2021/12/05 23:22:49;;;;;;;129.85;81.07;;;;;;;;;;4957053;29;20151;-76
2021/12/05 23:25:16;;;;;;;124.43;78.15;;;;;;;;;;4956988;29;20463;-76
2021/12/05 23:27:42;;;;;;;118.88;74.10;;;;;;;;;;4967009;28;20034;-77
2021/12/05 23:30:12;;;;;;;112.13;70.47;;;;;;;;;;4956266;28;20027;-77
2021/12/05 23:32:39;;;;;;;118.07;71.40;;;;;;;;;;4959200;28;20160;-77
2021/12/05 23:35:05;;;;;;;110.03;65.80;;;;;;;;;;4955678;29;20058;-77
2021/12/05 23:37:32;;;;;;;116.15;64.00;;;;;;;;;;4955213;29;20035;-77
2021/12/05 23:39:58;;;;;;;119.75;67.03;;;;;;;;;;4956807;28;20082;-77
2021/12/05 23:42:26;;;;;;;113.63;62.60;;;;;;;;;;4955670;28;20034;-76
2021/12/05 23:44:52;;;;;;;116.63;64.25;;;;;;;;;;4956904;29;20032;-77
2021/12/05 23:47:19;;;;;;;116.20;63.47;;;;;;;;;;4956493;29;20034;-76
2021/12/05 23:49:45;;;;;;;125.97;65.82;;;;;;;;;;4954774;29;20071;-77
2021/12/05 23:52:13;;;;;;;120.25;67.18;;;;;;;;;;4956502;28;20027;-77
2021/12/05 23:54:39;;;;;;;131.80;68.90;;;;;;;;;;4956378;29;20118;-77
2021/12/05 23:57:05;;;;;;;140.63;70.80;;;;;;;;;;4960682;28;20024;-77
2021/12/05 23:59:31;;;;;;;145.13;71.43;;;;;;;;;;4939939;29;20040;-77
